Terminal Aerodrome Forecast
Issued by NWS

Home | Current Version | Previous Version | Text Only | Print | Product List | Glossary Off
Versions: 1 2 3 4 5 6 7 8 9 10 11 12 13 14 15 16

000
FTUS43 KICT 130500
TAFRSL
TAF
KRSL 130520Z 1306/1406 00000KT P6SM SKC
     FM131100 17004KT P6SM SKC
     FM131400 17009KT P6SM SCT025
     FM131700 17013KT P6SM SCT080=

USA.gov is the U.S. government's official web portal to all federal, state and local government web resources and services.